DIAAM UHMO-UESK
Flight info
| Callsign | DIAAM |
|---|---|
| Flight time | 1h 48m |
| Altitude | 10000 |
| Route | DCT |
| Aircraft | TBM9/M-V/N |
Departure
| Time | 2026-04-22 18:43 |
|---|---|
| Airport | Markovo Airport (UHMO) |
Arrival
| Time | 2026-04-22 20:31 |
|---|---|
| Airport | Srednekolymsk Airport (UESK) |
| Time | Latitude | Longitude | Altitude | Speed | Heading |
|---|---|---|---|---|---|
| 2026-04-22 18:27 | 64.66631 | 170.39458 | 87 ft | 0 kts | 86° |
| 2026-04-22 18:42 | 64.66631 | 170.39459 | 83 ft | 2 kts | 85° |
| 2026-04-22 18:42 | 64.66561 | 170.39982 | 90 ft | 65 kts | 110° |
| 2026-04-22 18:42 | 64.66509 | 170.41450 | 249 ft | 108 kts | 90° |
| 2026-04-22 18:43 | 64.66475 | 170.43459 | 499 ft | 137 kts | 90° |
| 2026-04-22 18:43 | 64.66521 | 170.45761 | 933 ft | 143 kts | 78° |
| 2026-04-22 18:43 | 64.66750 | 170.47964 | 1553 ft | 140 kts | 70° |
| 2026-04-22 18:43 | 64.67041 | 170.50179 | 1904 ft | 146 kts | 72° |
| 2026-04-22 18:44 | 64.67335 | 170.52595 | 2019 ft | 159 kts | 63° |
| 2026-04-22 18:44 | 64.68033 | 170.54591 | 2256 ft | 162 kts | 38° |
| 2026-04-22 18:44 | 64.69058 | 170.55706 | 2557 ft | 165 kts | 15° |
| 2026-04-22 18:44 | 64.70233 | 170.55685 | 2712 ft | 176 kts | 352° |
| 2026-04-22 18:45 | 64.71364 | 170.54466 | 2943 ft | 181 kts | 326° |
| 2026-04-22 18:45 | 64.72150 | 170.52168 | 3252 ft | 184 kts | 296° |
| 2026-04-22 18:45 | 64.72335 | 170.49298 | 3658 ft | 184 kts | 266° |
| 2026-04-22 18:45 | 64.72124 | 170.46260 | 3849 ft | 194 kts | 261° |
| 2026-04-22 18:46 | 64.71791 | 170.43127 | 4114 ft | 202 kts | 256° |
| 2026-04-22 18:46 | 64.71397 | 170.39912 | 4346 ft | 207 kts | 255° |
| 2026-04-22 18:46 | 64.71041 | 170.36647 | 4695 ft | 206 kts | 259° |
| 2026-04-22 18:46 | 64.70949 | 170.33324 | 5054 ft | 204 kts | 276° |
| 2026-04-22 18:47 | 64.71090 | 170.30046 | 5380 ft | 204 kts | 280° |
| 2026-04-22 18:47 | 64.71313 | 170.26757 | 5671 ft | 206 kts | 283° |
| 2026-04-22 18:47 | 64.71630 | 170.23471 | 5879 ft | 209 kts | 290° |
| 2026-04-22 18:47 | 64.72086 | 170.20243 | 6131 ft | 210 kts | 292° |
| 2026-04-22 18:48 | 64.72547 | 170.16979 | 6335 ft | 214 kts | 292° |
| 2026-04-22 18:48 | 64.72861 | 170.14792 | 6490 ft | 213 kts | 294° |
| 2026-04-22 18:48 | 64.73342 | 170.11497 | 6689 ft | 215 kts | 292° |
| 2026-04-22 18:48 | 64.73819 | 170.08137 | 6806 ft | 219 kts | 293° |
| 2026-04-22 18:49 | 64.74455 | 170.03591 | 6879 ft | 224 kts | 292° |
| 2026-04-22 18:49 | 64.74787 | 170.01251 | 6953 ft | 224 kts | 292° |
| 2026-04-22 18:49 | 64.75282 | 169.97802 | 7085 ft | 223 kts | 292° |
| 2026-04-22 18:49 | 64.75797 | 169.94344 | 7113 ft | 227 kts | 294° |
| 2026-04-22 18:50 | 64.76328 | 169.90858 | 7177 ft | 226 kts | 294° |
| 2026-04-22 18:50 | 64.76841 | 169.87347 | 7211 ft | 228 kts | 291° |
| 2026-04-22 18:50 | 64.77307 | 169.83754 | 7236 ft | 231 kts | 290° |
| 2026-04-22 18:50 | 64.77673 | 169.80104 | 7367 ft | 229 kts | 285° |
| 2026-04-22 18:51 | 64.77899 | 169.76436 | 7526 ft | 229 kts | 279° |
| 2026-04-22 18:51 | 64.78059 | 169.72786 | 7797 ft | 222 kts | 278° |
| 2026-04-22 18:51 | 64.78138 | 169.69193 | 8098 ft | 219 kts | 276° |
| 2026-04-22 18:51 | 64.78181 | 169.65692 | 8399 ft | 217 kts | 275° |
| 2026-04-22 18:52 | 64.78218 | 169.62084 | 8710 ft | 226 kts | 275° |
| 2026-04-22 18:52 | 64.78207 | 169.58349 | 9030 ft | 233 kts | 268° |
| 2026-04-22 18:52 | 64.77956 | 169.54547 | 9346 ft | 238 kts | 263° |
| 2026-04-22 18:52 | 64.77668 | 169.50708 | 9665 ft | 241 kts | 263° |
| 2026-04-22 18:53 | 64.77371 | 169.46815 | 9984 ft | 243 kts | 263° |
| 2026-04-22 18:53 | 64.77071 | 169.42899 | 10290 ft | 245 kts | 263° |
| 2026-04-22 18:53 | 64.76767 | 169.38959 | 10578 ft | 246 kts | 263° |
| 2026-04-22 18:53 | 64.76462 | 169.34989 | 10868 ft | 248 kts | 263° |
| 2026-04-22 18:54 | 64.76154 | 169.30992 | 11159 ft | 249 kts | 263° |
| 2026-04-22 18:54 | 64.75845 | 169.26976 | 11453 ft | 250 kts | 263° |
| 2026-04-22 18:54 | 64.75537 | 169.22964 | 11749 ft | 251 kts | 263° |
| 2026-04-22 18:54 | 64.75228 | 169.18926 | 12049 ft | 252 kts | 263° |
| 2026-04-22 18:55 | 64.74915 | 169.14852 | 12345 ft | 254 kts | 263° |
| 2026-04-22 18:55 | 64.74602 | 169.10780 | 12654 ft | 255 kts | 263° |
| 2026-04-22 18:55 | 64.74286 | 169.06670 | 12957 ft | 256 kts | 263° |
| 2026-04-22 18:55 | 64.74027 | 169.02490 | 13021 ft | 263 kts | 273° |
| 2026-04-22 18:56 | 64.74226 | 168.99642 | 13017 ft | 262 kts | 292° |
| 2026-04-22 18:56 | 64.74977 | 168.95732 | 13028 ft | 264 kts | 301° |
| 2026-04-22 18:56 | 64.75836 | 168.91903 | 13032 ft | 266 kts | 305° |
| 2026-04-22 18:56 | 64.76935 | 168.88516 | 13033 ft | 264 kts | 316° |
| 2026-04-22 18:57 | 64.78233 | 168.85432 | 13143 ft | 261 kts | 320° |
| 2026-04-22 18:57 | 64.79520 | 168.82535 | 13284 ft | 259 kts | 321° |
| 2026-04-22 18:57 | 64.80871 | 168.79699 | 13297 ft | 261 kts | 323° |
| 2026-04-22 18:57 | 64.82253 | 168.76910 | 13299 ft | 263 kts | 324° |
| 2026-04-22 18:58 | 64.83695 | 168.74280 | 13300 ft | 263 kts | 328° |
| 2026-04-22 18:58 | 64.85183 | 168.71770 | 13301 ft | 263 kts | 328° |
| 2026-04-22 18:58 | 64.86673 | 168.69277 | 13297 ft | 263 kts | 329° |
| 2026-04-22 18:58 | 64.88161 | 168.66781 | 13298 ft | 263 kts | 328° |
| 2026-04-22 18:59 | 64.89653 | 168.64280 | 13328 ft | 262 kts | 328° |
| 2026-04-22 18:59 | 64.91119 | 168.61811 | 13545 ft | 256 kts | 328° |
| 2026-04-22 18:59 | 64.92558 | 168.59381 | 13769 ft | 253 kts | 328° |
| 2026-04-22 18:59 | 64.93983 | 168.56960 | 13998 ft | 251 kts | 328° |
| 2026-04-22 19:00 | 64.95397 | 168.54554 | 14213 ft | 250 kts | 328° |
| 2026-04-22 19:00 | 64.96810 | 168.52144 | 14415 ft | 250 kts | 328° |
| 2026-04-22 19:00 | 64.98219 | 168.49744 | 14619 ft | 250 kts | 328° |
| 2026-04-22 19:00 | 64.99616 | 168.47366 | 14819 ft | 251 kts | 328° |
| 2026-04-22 19:01 | 65.01035 | 168.44953 | 15022 ft | 251 kts | 328° |
| 2026-04-22 19:01 | 65.02449 | 168.42544 | 15236 ft | 250 kts | 328° |
| 2026-04-22 19:01 | 65.03865 | 168.40126 | 15442 ft | 251 kts | 328° |
| 2026-04-22 19:01 | 65.05277 | 168.37699 | 15655 ft | 251 kts | 326° |
| 2026-04-22 19:02 | 65.06384 | 168.34442 | 15864 ft | 260 kts | 302° |
| 2026-04-22 19:02 | 65.07127 | 168.30509 | 16072 ft | 262 kts | 297° |
| 2026-04-22 19:02 | 65.07819 | 168.26511 | 16290 ft | 262 kts | 296° |
| 2026-04-22 19:02 | 65.08507 | 168.22493 | 16510 ft | 263 kts | 296° |
| 2026-04-22 19:03 | 65.09193 | 168.18454 | 16727 ft | 264 kts | 296° |
| 2026-04-22 19:03 | 65.09881 | 168.14399 | 16957 ft | 266 kts | 296° |
| 2026-04-22 19:03 | 65.10570 | 168.10322 | 17179 ft | 266 kts | 296° |
| 2026-04-22 19:03 | 65.11263 | 168.06230 | 17401 ft | 267 kts | 296° |
| 2026-04-22 19:04 | 65.11953 | 168.02143 | 17625 ft | 267 kts | 296° |
| 2026-04-22 19:04 | 65.12634 | 167.98087 | 17854 ft | 268 kts | 296° |
| 2026-04-22 19:04 | 65.13008 | 167.93730 | 18074 ft | 275 kts | 274° |
| 2026-04-22 19:04 | 65.12691 | 167.89207 | 18295 ft | 282 kts | 253° |
| 2026-04-22 19:05 | 65.11870 | 167.84900 | 18305 ft | 290 kts | 245° |
| 2026-04-22 19:05 | 65.10935 | 167.80613 | 18320 ft | 295 kts | 244° |
| 2026-04-22 19:05 | 65.09967 | 167.76269 | 18316 ft | 299 kts | 244° |
| 2026-04-22 19:05 | 65.08984 | 167.71893 | 18312 ft | 301 kts | 244° |
| 2026-04-22 19:06 | 65.07994 | 167.67511 | 18322 ft | 302 kts | 244° |
| 2026-04-22 19:06 | 65.07001 | 167.63120 | 18319 ft | 303 kts | 244° |
| 2026-04-22 19:06 | 65.06002 | 167.58717 | 18324 ft | 303 kts | 244° |
| 2026-04-22 19:07 | 65.03999 | 167.49911 | 18317 ft | 304 kts | 244° |
| 2026-04-22 19:07 | 65.02991 | 167.45492 | 18311 ft | 304 kts | 244° |
| 2026-04-22 19:07 | 65.01986 | 167.41095 | 18314 ft | 304 kts | 244° |
| 2026-04-22 19:07 | 65.00977 | 167.36694 | 18305 ft | 304 kts | 244° |
| 2026-04-22 19:08 | 64.99987 | 167.32395 | 18507 ft | 299 kts | 244° |
| 2026-04-22 19:08 | 64.98996 | 167.28114 | 18719 ft | 295 kts | 244° |
| 2026-04-22 19:08 | 64.97998 | 167.23823 | 18919 ft | 293 kts | 244° |
| 2026-04-22 19:08 | 64.97019 | 167.19624 | 19116 ft | 292 kts | 244° |
| 2026-04-22 19:09 | 64.96053 | 167.15485 | 19316 ft | 291 kts | 244° |
| 2026-04-22 19:09 | 64.95076 | 167.11310 | 19518 ft | 290 kts | 244° |
| 2026-04-22 19:09 | 64.94099 | 167.07139 | 19721 ft | 290 kts | 244° |
| 2026-04-22 19:09 | 64.93121 | 167.02962 | 19929 ft | 290 kts | 244° |
| 2026-04-22 19:10 | 64.92142 | 166.98786 | 20135 ft | 290 kts | 244° |
| 2026-04-22 19:10 | 64.91162 | 166.94610 | 20344 ft | 291 kts | 244° |
| 2026-04-22 19:10 | 64.90183 | 166.90438 | 20560 ft | 291 kts | 244° |
| 2026-04-22 19:10 | 64.89201 | 166.86260 | 20767 ft | 292 kts | 244° |
| 2026-04-22 19:11 | 64.88217 | 166.82071 | 20980 ft | 292 kts | 244° |
| 2026-04-22 19:11 | 64.87231 | 166.77881 | 21193 ft | 293 kts | 244° |
| 2026-04-22 19:11 | 64.86243 | 166.73692 | 21412 ft | 293 kts | 244° |
| 2026-04-22 19:11 | 64.85254 | 166.69497 | 21630 ft | 294 kts | 244° |
| 2026-04-22 19:12 | 64.84260 | 166.65293 | 21850 ft | 294 kts | 244° |
| 2026-04-22 19:12 | 64.83276 | 166.61132 | 22071 ft | 295 kts | 244° |
| 2026-04-22 19:12 | 64.82278 | 166.56912 | 22293 ft | 296 kts | 244° |
| 2026-04-22 19:12 | 64.81278 | 166.52692 | 22518 ft | 296 kts | 244° |
| 2026-04-22 19:13 | 64.80333 | 166.48403 | 22740 ft | 295 kts | 251° |
| 2026-04-22 19:13 | 64.79940 | 166.43763 | 22967 ft | 287 kts | 274° |
| 2026-04-22 19:13 | 64.80169 | 166.39158 | 23200 ft | 283 kts | 286° |
| 2026-04-22 19:13 | 64.80592 | 166.34649 | 23433 ft | 283 kts | 288° |
| 2026-04-22 19:14 | 64.81045 | 166.30151 | 23667 ft | 283 kts | 288° |
| 2026-04-22 19:14 | 64.81507 | 166.25651 | 23897 ft | 284 kts | 288° |
| 2026-04-22 19:14 | 64.81972 | 166.21140 | 24090 ft | 285 kts | 288° |
| 2026-04-22 19:14 | 64.82439 | 166.16612 | 24279 ft | 285 kts | 288° |
| 2026-04-22 19:15 | 64.82747 | 166.13614 | 24409 ft | 286 kts | 288° |
| 2026-04-22 19:15 | 64.83374 | 166.07530 | 24666 ft | 287 kts | 288° |
| 2026-04-22 19:15 | 64.83845 | 166.02955 | 24861 ft | 288 kts | 288° |
| 2026-04-22 19:15 | 64.84315 | 165.98384 | 25052 ft | 288 kts | 288° |
| 2026-04-22 19:16 | 64.84786 | 165.93794 | 25247 ft | 289 kts | 288° |
| 2026-04-22 19:16 | 64.85263 | 165.89158 | 25281 ft | 295 kts | 288° |
| 2026-04-22 19:16 | 64.85746 | 165.84482 | 25282 ft | 300 kts | 288° |
| 2026-04-22 19:16 | 64.86249 | 165.79617 | 25287 ft | 304 kts | 288° |
| 2026-04-22 19:17 | 64.86744 | 165.74827 | 25290 ft | 306 kts | 288° |
| 2026-04-22 19:17 | 64.87247 | 165.69947 | 25296 ft | 308 kts | 288° |
| 2026-04-22 19:17 | 64.87751 | 165.65039 | 25296 ft | 309 kts | 288° |
| 2026-04-22 19:17 | 64.88254 | 165.60124 | 25297 ft | 310 kts | 288° |
| 2026-04-22 19:18 | 64.88757 | 165.55187 | 25294 ft | 310 kts | 288° |
| 2026-04-22 19:18 | 64.89259 | 165.50250 | 25300 ft | 311 kts | 288° |
| 2026-04-22 19:18 | 64.89761 | 165.45294 | 25297 ft | 311 kts | 288° |
| 2026-04-22 19:18 | 64.90255 | 165.40397 | 25296 ft | 311 kts | 288° |
| 2026-04-22 19:19 | 64.90753 | 165.35430 | 25296 ft | 311 kts | 288° |
| 2026-04-22 19:19 | 64.91248 | 165.30469 | 25296 ft | 311 kts | 288° |
| 2026-04-22 19:19 | 64.91740 | 165.25505 | 25296 ft | 311 kts | 288° |
| 2026-04-22 19:19 | 64.92292 | 165.20590 | 25294 ft | 308 kts | 294° |
| 2026-04-22 19:20 | 64.93069 | 165.15911 | 25297 ft | 306 kts | 298° |
| 2026-04-22 19:20 | 64.93912 | 165.11307 | 25296 ft | 306 kts | 298° |
| 2026-04-22 19:20 | 64.94766 | 165.06715 | 25292 ft | 306 kts | 299° |
| 2026-04-22 19:20 | 64.95624 | 165.02118 | 25292 ft | 306 kts | 299° |
| 2026-04-22 19:21 | 64.96481 | 164.97518 | 25289 ft | 306 kts | 299° |
| 2026-04-22 19:21 | 64.97333 | 164.92926 | 25291 ft | 306 kts | 299° |
| 2026-04-22 19:21 | 64.98174 | 164.88376 | 25297 ft | 306 kts | 299° |
| 2026-04-22 19:21 | 64.99024 | 164.83768 | 25295 ft | 306 kts | 299° |
| 2026-04-22 19:22 | 64.99870 | 164.79148 | 25291 ft | 306 kts | 299° |
| 2026-04-22 19:22 | 65.00715 | 164.74532 | 25294 ft | 306 kts | 298° |
| 2026-04-22 19:22 | 65.01558 | 164.69908 | 25296 ft | 306 kts | 299° |
| 2026-04-22 19:22 | 65.02394 | 164.65291 | 25293 ft | 306 kts | 298° |
| 2026-04-22 19:23 | 65.03230 | 164.60657 | 25295 ft | 306 kts | 298° |
| 2026-04-22 19:23 | 65.04060 | 164.56030 | 25294 ft | 306 kts | 298° |
| 2026-04-22 19:23 | 65.04892 | 164.51392 | 25295 ft | 305 kts | 298° |
| 2026-04-22 19:23 | 65.05722 | 164.46744 | 25292 ft | 306 kts | 298° |
| 2026-04-22 19:24 | 65.06546 | 164.42105 | 25291 ft | 306 kts | 298° |
| 2026-04-22 19:24 | 65.07374 | 164.37442 | 25295 ft | 306 kts | 298° |
| 2026-04-22 19:24 | 65.08194 | 164.32785 | 25296 ft | 306 kts | 298° |
| 2026-04-22 19:24 | 65.09016 | 164.28115 | 25301 ft | 306 kts | 298° |
| 2026-04-22 19:25 | 65.09832 | 164.23459 | 25297 ft | 305 kts | 298° |
| 2026-04-22 19:25 | 65.10642 | 164.18800 | 25302 ft | 305 kts | 298° |
| 2026-04-22 19:25 | 65.11448 | 164.14133 | 25300 ft | 305 kts | 298° |
| 2026-04-22 19:25 | 65.12249 | 164.09465 | 25301 ft | 305 kts | 298° |
| 2026-04-22 19:26 | 65.13048 | 164.04782 | 25304 ft | 306 kts | 298° |
| 2026-04-22 19:26 | 65.13844 | 164.00106 | 25305 ft | 306 kts | 298° |
| 2026-04-22 19:26 | 65.14627 | 163.95469 | 25302 ft | 306 kts | 298° |
| 2026-04-22 19:26 | 65.15419 | 163.90771 | 25297 ft | 305 kts | 298° |
| 2026-04-22 19:27 | 65.16203 | 163.86095 | 25301 ft | 305 kts | 298° |
| 2026-04-22 19:27 | 65.16986 | 163.81393 | 25300 ft | 306 kts | 298° |
| 2026-04-22 19:27 | 65.17765 | 163.76689 | 25300 ft | 305 kts | 298° |
| 2026-04-22 19:27 | 65.18540 | 163.71984 | 25299 ft | 305 kts | 298° |
| 2026-04-22 19:28 | 65.19310 | 163.67284 | 25308 ft | 304 kts | 298° |
| 2026-04-22 19:28 | 65.20076 | 163.62579 | 25306 ft | 305 kts | 298° |
| 2026-04-22 19:28 | 65.20839 | 163.57862 | 25310 ft | 305 kts | 298° |
| 2026-04-22 19:28 | 65.21598 | 163.53146 | 25313 ft | 305 kts | 298° |
| 2026-04-22 19:29 | 65.22353 | 163.48425 | 25311 ft | 305 kts | 298° |
| 2026-04-22 19:29 | 65.23104 | 163.43699 | 25310 ft | 305 kts | 298° |
| 2026-04-22 19:29 | 65.23851 | 163.38973 | 25312 ft | 305 kts | 298° |
| 2026-04-22 19:29 | 65.24594 | 163.34243 | 25309 ft | 305 kts | 298° |
| 2026-04-22 19:30 | 65.24836 | 163.32699 | 25314 ft | 305 kts | 298° |
| 2026-04-22 19:30 | 65.26064 | 163.24813 | 25312 ft | 305 kts | 298° |
| 2026-04-22 19:30 | 65.26797 | 163.20078 | 25315 ft | 304 kts | 298° |
| 2026-04-22 19:30 | 65.27529 | 163.15331 | 25314 ft | 304 kts | 298° |
| 2026-04-22 19:31 | 65.28257 | 163.10574 | 25310 ft | 304 kts | 298° |
| 2026-04-22 19:31 | 65.28980 | 163.05828 | 25311 ft | 305 kts | 298° |
| 2026-04-22 19:31 | 65.29461 | 163.02660 | 25307 ft | 305 kts | 298° |
| 2026-04-22 19:31 | 65.30180 | 162.97893 | 25307 ft | 304 kts | 298° |
| 2026-04-22 19:32 | 65.30895 | 162.93121 | 25306 ft | 305 kts | 298° |
| 2026-04-22 19:32 | 65.31608 | 162.88343 | 25302 ft | 305 kts | 298° |
| 2026-04-22 19:32 | 65.32318 | 162.83554 | 25302 ft | 304 kts | 298° |
| 2026-04-22 19:32 | 65.33022 | 162.78787 | 25304 ft | 304 kts | 298° |
| 2026-04-22 19:33 | 65.33723 | 162.74000 | 25299 ft | 304 kts | 298° |
| 2026-04-22 19:33 | 65.34416 | 162.69230 | 25294 ft | 304 kts | 298° |
| 2026-04-22 19:33 | 65.35109 | 162.64430 | 25297 ft | 305 kts | 298° |
| 2026-04-22 19:33 | 65.35802 | 162.59630 | 25294 ft | 305 kts | 298° |
| 2026-04-22 19:34 | 65.36493 | 162.54823 | 25290 ft | 305 kts | 297° |
| 2026-04-22 19:34 | 65.37178 | 162.50012 | 25294 ft | 304 kts | 297° |
| 2026-04-22 19:34 | 65.37861 | 162.45208 | 25296 ft | 305 kts | 297° |
| 2026-04-22 19:34 | 65.38534 | 162.40454 | 25287 ft | 305 kts | 297° |
| 2026-04-22 19:35 | 65.39212 | 162.35637 | 25291 ft | 303 kts | 297° |
| 2026-04-22 19:35 | 65.39884 | 162.30834 | 25289 ft | 303 kts | 297° |
| 2026-04-22 19:35 | 65.40550 | 162.26036 | 25286 ft | 303 kts | 297° |
| 2026-04-22 19:35 | 65.41213 | 162.21229 | 25287 ft | 304 kts | 297° |
| 2026-04-22 19:36 | 65.41873 | 162.16409 | 25290 ft | 304 kts | 297° |
| 2026-04-22 19:36 | 65.42529 | 162.11576 | 25288 ft | 303 kts | 297° |
| 2026-04-22 19:36 | 65.43182 | 162.06750 | 25286 ft | 303 kts | 297° |
| 2026-04-22 19:36 | 65.43830 | 162.01923 | 25282 ft | 303 kts | 297° |
| 2026-04-22 19:37 | 65.44474 | 161.97106 | 25281 ft | 303 kts | 297° |
| 2026-04-22 19:37 | 65.45119 | 161.92261 | 25277 ft | 304 kts | 297° |
| 2026-04-22 19:37 | 65.45764 | 161.87395 | 25278 ft | 305 kts | 297° |
| 2026-04-22 19:37 | 65.46407 | 161.82527 | 25278 ft | 305 kts | 297° |
| 2026-04-22 19:38 | 65.47046 | 161.77663 | 25275 ft | 305 kts | 297° |
| 2026-04-22 19:38 | 65.47672 | 161.72863 | 25272 ft | 305 kts | 297° |
| 2026-04-22 19:38 | 65.48303 | 161.67987 | 25275 ft | 305 kts | 297° |
| 2026-04-22 19:38 | 65.48933 | 161.63105 | 25272 ft | 305 kts | 297° |
| 2026-04-22 19:39 | 65.49559 | 161.58225 | 25275 ft | 304 kts | 297° |
| 2026-04-22 19:39 | 65.50182 | 161.53363 | 25266 ft | 303 kts | 298° |
| 2026-04-22 19:39 | 65.50924 | 161.48685 | 25271 ft | 296 kts | 303° |
| 2026-04-22 19:39 | 65.51759 | 161.44155 | 25272 ft | 294 kts | 305° |
| 2026-04-22 19:40 | 65.52609 | 161.39657 | 25270 ft | 295 kts | 305° |
| 2026-04-22 19:40 | 65.53464 | 161.35144 | 25268 ft | 295 kts | 305° |
| 2026-04-22 19:40 | 65.54317 | 161.30629 | 25269 ft | 295 kts | 305° |
| 2026-04-22 19:40 | 65.55161 | 161.26148 | 25272 ft | 292 kts | 305° |
| 2026-04-22 19:41 | 65.55996 | 161.21687 | 25272 ft | 292 kts | 305° |
| 2026-04-22 19:41 | 65.56829 | 161.17216 | 25273 ft | 293 kts | 305° |
| 2026-04-22 19:41 | 65.57664 | 161.12700 | 25270 ft | 294 kts | 305° |
| 2026-04-22 19:41 | 65.58493 | 161.08188 | 25265 ft | 294 kts | 305° |
| 2026-04-22 19:42 | 65.59322 | 161.03679 | 25269 ft | 293 kts | 305° |
| 2026-04-22 19:42 | 65.60150 | 160.99166 | 25267 ft | 293 kts | 305° |
| 2026-04-22 19:42 | 65.60972 | 160.94645 | 25265 ft | 295 kts | 305° |
| 2026-04-22 19:42 | 65.61793 | 160.90094 | 25270 ft | 294 kts | 305° |
| 2026-04-22 19:43 | 65.63424 | 160.81018 | 25266 ft | 293 kts | 304° |
| 2026-04-22 19:43 | 65.64235 | 160.76487 | 25263 ft | 293 kts | 305° |
| 2026-04-22 19:43 | 65.65043 | 160.71952 | 25272 ft | 293 kts | 305° |
| 2026-04-22 19:44 | 65.65849 | 160.67407 | 25267 ft | 294 kts | 305° |
| 2026-04-22 19:44 | 65.66655 | 160.62857 | 25262 ft | 293 kts | 304° |
| 2026-04-22 19:44 | 65.67455 | 160.58311 | 25262 ft | 293 kts | 304° |
| 2026-04-22 19:44 | 65.68255 | 160.53756 | 25271 ft | 293 kts | 305° |
| 2026-04-22 19:45 | 65.69045 | 160.49245 | 25268 ft | 295 kts | 304° |
| 2026-04-22 19:45 | 65.69849 | 160.44651 | 25267 ft | 295 kts | 304° |
| 2026-04-22 19:45 | 65.70650 | 160.40051 | 25264 ft | 296 kts | 304° |
| 2026-04-22 19:45 | 65.71446 | 160.35450 | 25270 ft | 295 kts | 304° |
| 2026-04-22 19:46 | 65.72237 | 160.30856 | 25271 ft | 294 kts | 304° |
| 2026-04-22 19:46 | 65.73022 | 160.26274 | 25271 ft | 293 kts | 304° |
| 2026-04-22 19:46 | 65.73802 | 160.21688 | 25267 ft | 293 kts | 304° |
| 2026-04-22 19:46 | 65.74582 | 160.17104 | 25265 ft | 293 kts | 304° |
| 2026-04-22 19:47 | 65.75357 | 160.12520 | 25271 ft | 293 kts | 304° |
| 2026-04-22 19:47 | 65.76131 | 160.07931 | 25271 ft | 293 kts | 304° |
| 2026-04-22 19:47 | 65.76899 | 160.03345 | 25272 ft | 293 kts | 304° |
| 2026-04-22 19:47 | 65.77664 | 159.98755 | 25273 ft | 293 kts | 304° |
| 2026-04-22 19:48 | 65.78419 | 159.94208 | 25273 ft | 293 kts | 304° |
| 2026-04-22 19:48 | 65.79193 | 159.89545 | 25273 ft | 293 kts | 304° |
| 2026-04-22 19:48 | 65.79950 | 159.84957 | 25272 ft | 292 kts | 304° |
| 2026-04-22 19:48 | 65.80703 | 159.80362 | 25273 ft | 292 kts | 304° |
| 2026-04-22 19:49 | 65.81455 | 159.75765 | 25271 ft | 292 kts | 304° |
| 2026-04-22 19:49 | 65.82206 | 159.71155 | 25272 ft | 292 kts | 304° |
| 2026-04-22 19:49 | 65.82945 | 159.66593 | 25276 ft | 292 kts | 304° |
| 2026-04-22 19:49 | 65.83691 | 159.61984 | 25275 ft | 292 kts | 304° |
| 2026-04-22 19:50 | 65.84436 | 159.57372 | 25274 ft | 292 kts | 304° |
| 2026-04-22 19:50 | 65.85180 | 159.52746 | 25279 ft | 292 kts | 304° |
| 2026-04-22 19:50 | 65.85922 | 159.48117 | 25270 ft | 292 kts | 304° |
| 2026-04-22 19:50 | 65.86664 | 159.43476 | 25277 ft | 293 kts | 304° |
| 2026-04-22 19:51 | 65.87401 | 159.38845 | 25281 ft | 293 kts | 304° |
| 2026-04-22 19:51 | 65.88157 | 159.34242 | 25282 ft | 289 kts | 307° |
| 2026-04-22 19:51 | 65.89000 | 159.29859 | 25279 ft | 287 kts | 308° |
| 2026-04-22 19:51 | 65.89875 | 159.25455 | 25282 ft | 287 kts | 309° |
| 2026-04-22 19:52 | 65.90752 | 159.21072 | 25285 ft | 287 kts | 309° |
| 2026-04-22 19:52 | 65.91628 | 159.16692 | 25288 ft | 286 kts | 309° |
| 2026-04-22 19:52 | 65.92504 | 159.12299 | 25284 ft | 286 kts | 309° |
| 2026-04-22 19:52 | 65.93376 | 159.07925 | 25283 ft | 286 kts | 309° |
| 2026-04-22 19:53 | 65.94245 | 159.03534 | 25285 ft | 286 kts | 309° |
| 2026-04-22 19:53 | 65.95114 | 158.99132 | 25283 ft | 286 kts | 309° |
| 2026-04-22 19:53 | 65.95978 | 158.94740 | 25289 ft | 286 kts | 309° |
| 2026-04-22 19:53 | 65.96838 | 158.90344 | 25288 ft | 286 kts | 309° |
| 2026-04-22 19:54 | 65.97695 | 158.85937 | 25289 ft | 285 kts | 309° |
| 2026-04-22 19:54 | 65.98547 | 158.81545 | 25286 ft | 285 kts | 309° |
| 2026-04-22 19:54 | 65.99385 | 158.77205 | 25293 ft | 285 kts | 309° |
| 2026-04-22 19:54 | 66.00235 | 158.72792 | 25289 ft | 286 kts | 309° |
| 2026-04-22 19:55 | 66.01082 | 158.68370 | 25294 ft | 286 kts | 309° |
| 2026-04-22 19:55 | 66.01924 | 158.63948 | 25295 ft | 286 kts | 309° |
| 2026-04-22 19:55 | 66.02763 | 158.59525 | 25299 ft | 285 kts | 309° |
| 2026-04-22 19:55 | 66.03600 | 158.55098 | 25298 ft | 285 kts | 309° |
| 2026-04-22 19:56 | 66.04434 | 158.50676 | 25296 ft | 285 kts | 309° |
| 2026-04-22 19:56 | 66.05265 | 158.46246 | 25302 ft | 285 kts | 309° |
| 2026-04-22 19:56 | 66.06094 | 158.41817 | 25299 ft | 285 kts | 309° |
| 2026-04-22 19:56 | 66.06917 | 158.37405 | 25299 ft | 284 kts | 308° |
| 2026-04-22 19:57 | 66.07741 | 158.32980 | 25303 ft | 283 kts | 309° |
| 2026-04-22 19:57 | 66.08560 | 158.28571 | 25301 ft | 284 kts | 308° |
| 2026-04-22 19:57 | 66.09380 | 158.24150 | 25301 ft | 283 kts | 308° |
| 2026-04-22 19:57 | 66.10196 | 158.19728 | 25302 ft | 283 kts | 308° |
| 2026-04-22 19:58 | 66.11015 | 158.15304 | 25305 ft | 284 kts | 308° |
| 2026-04-22 19:58 | 66.11834 | 158.10873 | 25304 ft | 284 kts | 308° |
| 2026-04-22 19:58 | 66.12654 | 158.06430 | 25303 ft | 284 kts | 308° |
| 2026-04-22 19:58 | 66.13462 | 158.02048 | 25305 ft | 284 kts | 308° |
| 2026-04-22 19:59 | 66.14280 | 157.97612 | 25304 ft | 284 kts | 308° |
| 2026-04-22 20:00 | 66.19187 | 157.70959 | 25299 ft | 284 kts | 308° |
| 2026-04-22 20:00 | 66.20005 | 157.66503 | 25304 ft | 284 kts | 308° |
| 2026-04-22 20:01 | 66.20821 | 157.62056 | 25306 ft | 283 kts | 308° |
| 2026-04-22 20:01 | 66.21637 | 157.57610 | 25304 ft | 283 kts | 308° |
| 2026-04-22 20:01 | 66.22452 | 157.53164 | 25303 ft | 284 kts | 308° |
| 2026-04-22 20:01 | 66.23269 | 157.48714 | 25310 ft | 284 kts | 308° |
| 2026-04-22 20:02 | 66.24087 | 157.44262 | 25307 ft | 284 kts | 308° |
| 2026-04-22 20:02 | 66.24904 | 157.39812 | 25305 ft | 283 kts | 308° |
| 2026-04-22 20:02 | 66.25720 | 157.35362 | 25304 ft | 283 kts | 308° |
| 2026-04-22 20:02 | 66.26537 | 157.30912 | 25307 ft | 283 kts | 308° |
| 2026-04-22 20:03 | 66.27353 | 157.26463 | 25307 ft | 283 kts | 308° |
| 2026-04-22 20:03 | 66.28171 | 157.22012 | 25306 ft | 283 kts | 308° |
| 2026-04-22 20:03 | 66.28990 | 157.17566 | 25303 ft | 283 kts | 308° |
| 2026-04-22 20:03 | 66.29810 | 157.13128 | 25308 ft | 282 kts | 308° |
| 2026-04-22 20:04 | 66.30620 | 157.08741 | 25307 ft | 282 kts | 308° |
| 2026-04-22 20:04 | 66.31451 | 157.04249 | 25309 ft | 282 kts | 308° |
| 2026-04-22 20:04 | 66.32262 | 156.99876 | 25310 ft | 282 kts | 308° |
| 2026-04-22 20:04 | 66.33088 | 156.95433 | 25313 ft | 283 kts | 308° |
| 2026-04-22 20:05 | 66.33925 | 156.90938 | 25313 ft | 283 kts | 308° |
| 2026-04-22 20:05 | 66.34746 | 156.86536 | 25312 ft | 284 kts | 308° |
| 2026-04-22 20:05 | 66.35620 | 156.82166 | 25313 ft | 278 kts | 313° |
| 2026-04-22 20:05 | 66.36704 | 156.78297 | 25314 ft | 268 kts | 321° |
| 2026-04-22 20:06 | 66.37936 | 156.74844 | 25314 ft | 265 kts | 324° |
| 2026-04-22 20:06 | 66.39204 | 156.71495 | 25315 ft | 265 kts | 324° |
| 2026-04-22 20:06 | 66.40477 | 156.68177 | 25314 ft | 264 kts | 324° |
| 2026-04-22 20:06 | 66.41751 | 156.64871 | 25320 ft | 264 kts | 324° |
| 2026-04-22 20:07 | 66.43025 | 156.61574 | 25323 ft | 264 kts | 324° |
| 2026-04-22 20:07 | 66.44302 | 156.58268 | 25321 ft | 265 kts | 324° |
| 2026-04-22 20:07 | 66.45583 | 156.54957 | 25322 ft | 265 kts | 324° |
| 2026-04-22 20:07 | 66.46868 | 156.51633 | 25321 ft | 265 kts | 324° |
| 2026-04-22 20:08 | 66.48151 | 156.48317 | 25321 ft | 266 kts | 324° |
| 2026-04-22 20:08 | 66.49441 | 156.44990 | 25319 ft | 266 kts | 324° |
| 2026-04-22 20:08 | 66.50703 | 156.41569 | 25323 ft | 270 kts | 321° |
| 2026-04-22 20:08 | 66.51875 | 156.37834 | 25228 ft | 276 kts | 318° |
| 2026-04-22 20:09 | 66.53043 | 156.33951 | 25050 ft | 280 kts | 317° |
| 2026-04-22 20:09 | 66.54199 | 156.30077 | 24883 ft | 283 kts | 317° |
| 2026-04-22 20:09 | 66.55385 | 156.26106 | 24675 ft | 285 kts | 317° |
| 2026-04-22 20:09 | 66.56586 | 156.22105 | 24427 ft | 288 kts | 317° |
| 2026-04-22 20:10 | 66.57792 | 156.18093 | 24195 ft | 289 kts | 317° |
| 2026-04-22 20:10 | 66.59010 | 156.14054 | 23958 ft | 289 kts | 317° |
| 2026-04-22 20:10 | 66.60227 | 156.10018 | 23678 ft | 290 kts | 317° |
| 2026-04-22 20:10 | 66.61449 | 156.05975 | 23390 ft | 289 kts | 317° |
| 2026-04-22 20:11 | 66.62671 | 156.01950 | 23104 ft | 289 kts | 317° |
| 2026-04-22 20:11 | 66.63894 | 155.97931 | 22824 ft | 289 kts | 317° |
| 2026-04-22 20:11 | 66.65120 | 155.93917 | 22539 ft | 288 kts | 317° |
| 2026-04-22 20:11 | 66.66343 | 155.89930 | 22273 ft | 288 kts | 317° |
| 2026-04-22 20:12 | 66.67572 | 155.85939 | 21997 ft | 287 kts | 317° |
| 2026-04-22 20:12 | 66.68798 | 155.81966 | 21732 ft | 287 kts | 317° |
| 2026-04-22 20:12 | 66.69612 | 155.79332 | 21552 ft | 287 kts | 317° |
| 2026-04-22 20:12 | 66.71257 | 155.74027 | 21195 ft | 286 kts | 317° |
| 2026-04-22 20:13 | 66.72466 | 155.70127 | 20937 ft | 285 kts | 317° |
| 2026-04-22 20:13 | 66.73693 | 155.66184 | 20676 ft | 284 kts | 317° |
| 2026-04-22 20:13 | 66.74917 | 155.62248 | 20419 ft | 284 kts | 317° |
| 2026-04-22 20:13 | 66.76139 | 155.58334 | 20160 ft | 283 kts | 317° |
| 2026-04-22 20:14 | 66.77363 | 155.54421 | 19906 ft | 283 kts | 317° |
| 2026-04-22 20:14 | 66.78586 | 155.50512 | 19655 ft | 282 kts | 317° |
| 2026-04-22 20:14 | 66.79802 | 155.46624 | 19406 ft | 281 kts | 317° |
| 2026-04-22 20:14 | 66.81018 | 155.42743 | 19158 ft | 281 kts | 317° |
| 2026-04-22 20:15 | 66.81825 | 155.40176 | 18998 ft | 280 kts | 317° |
| 2026-04-22 20:15 | 66.83038 | 155.36320 | 18752 ft | 280 kts | 317° |
| 2026-04-22 20:15 | 66.84254 | 155.32453 | 18472 ft | 279 kts | 317° |
| 2026-04-22 20:15 | 66.85865 | 155.27361 | 18110 ft | 279 kts | 317° |
| 2026-04-22 20:16 | 66.87083 | 155.23527 | 17828 ft | 278 kts | 317° |
| 2026-04-22 20:16 | 66.88300 | 155.19712 | 17553 ft | 278 kts | 317° |
| 2026-04-22 20:16 | 66.89126 | 155.17135 | 17366 ft | 278 kts | 317° |
| 2026-04-22 20:16 | 66.90352 | 155.13340 | 17093 ft | 277 kts | 317° |
| 2026-04-22 20:17 | 66.91580 | 155.09548 | 16825 ft | 277 kts | 317° |
| 2026-04-22 20:17 | 66.92795 | 155.05819 | 16534 ft | 272 kts | 317° |
| 2026-04-22 20:17 | 66.93974 | 155.02186 | 16213 ft | 261 kts | 317° |
| 2026-04-22 20:17 | 66.95137 | 154.98614 | 15898 ft | 265 kts | 317° |
| 2026-04-22 20:18 | 66.96344 | 154.94955 | 15590 ft | 271 kts | 317° |
| 2026-04-22 20:18 | 66.97571 | 154.91276 | 15289 ft | 274 kts | 317° |
| 2026-04-22 20:18 | 66.98819 | 154.87564 | 14982 ft | 275 kts | 317° |
| 2026-04-22 20:18 | 67.00077 | 154.83849 | 14681 ft | 276 kts | 316° |
| 2026-04-22 20:19 | 67.01341 | 154.80148 | 14384 ft | 276 kts | 317° |
| 2026-04-22 20:19 | 67.02610 | 154.76453 | 14081 ft | 276 kts | 316° |
| 2026-04-22 20:19 | 67.03881 | 154.72769 | 13739 ft | 276 kts | 316° |
| 2026-04-22 20:19 | 67.05159 | 154.69094 | 13411 ft | 275 kts | 316° |
| 2026-04-22 20:20 | 67.06416 | 154.65484 | 13086 ft | 275 kts | 316° |
| 2026-04-22 20:20 | 67.07703 | 154.61796 | 12752 ft | 274 kts | 316° |
| 2026-04-22 20:20 | 67.08975 | 154.58157 | 12431 ft | 274 kts | 316° |
| 2026-04-22 20:20 | 67.10251 | 154.54527 | 12111 ft | 273 kts | 316° |
| 2026-04-22 20:21 | 67.11526 | 154.50927 | 11794 ft | 272 kts | 316° |
| 2026-04-22 20:21 | 67.12799 | 154.47340 | 11443 ft | 268 kts | 316° |
| 2026-04-22 20:21 | 67.14006 | 154.43926 | 11061 ft | 256 kts | 316° |
| 2026-04-22 20:21 | 67.15190 | 154.40587 | 10674 ft | 251 kts | 316° |
| 2026-04-22 20:22 | 67.16361 | 154.37294 | 10296 ft | 248 kts | 316° |
| 2026-04-22 20:22 | 67.17526 | 154.34049 | 9878 ft | 246 kts | 316° |
| 2026-04-22 20:22 | 67.18686 | 154.30810 | 9461 ft | 245 kts | 316° |
| 2026-04-22 20:22 | 67.19847 | 154.27596 | 9049 ft | 245 kts | 316° |
| 2026-04-22 20:23 | 67.21001 | 154.24391 | 8646 ft | 244 kts | 316° |
| 2026-04-22 20:23 | 67.22105 | 154.21340 | 8245 ft | 213 kts | 316° |
| 2026-04-22 20:23 | 67.23054 | 154.18666 | 7833 ft | 194 kts | 316° |
| 2026-04-22 20:23 | 67.23986 | 154.16051 | 7431 ft | 205 kts | 316° |
| 2026-04-22 20:24 | 67.24972 | 154.13288 | 7046 ft | 212 kts | 316° |
| 2026-04-22 20:24 | 67.25985 | 154.10479 | 6663 ft | 214 kts | 316° |
| 2026-04-22 20:24 | 67.27008 | 154.07666 | 6257 ft | 215 kts | 316° |
| 2026-04-22 20:24 | 67.28037 | 154.04846 | 5854 ft | 216 kts | 316° |
| 2026-04-22 20:25 | 67.29070 | 154.02021 | 5453 ft | 216 kts | 316° |
| 2026-04-22 20:25 | 67.30105 | 153.99200 | 5060 ft | 216 kts | 316° |
| 2026-04-22 20:25 | 67.31140 | 153.96374 | 4649 ft | 216 kts | 316° |
| 2026-04-22 20:25 | 67.32175 | 153.93553 | 4237 ft | 216 kts | 316° |
| 2026-04-22 20:26 | 67.33213 | 153.90726 | 3839 ft | 217 kts | 316° |
| 2026-04-22 20:26 | 67.34248 | 153.87902 | 3433 ft | 214 kts | 316° |
| 2026-04-22 20:26 | 67.35250 | 153.85208 | 3301 ft | 199 kts | 317° |
| 2026-04-22 20:26 | 67.36185 | 153.82680 | 3151 ft | 191 kts | 315° |
| 2026-04-22 20:27 | 67.37056 | 153.80104 | 2991 ft | 189 kts | 314° |
| 2026-04-22 20:27 | 67.37850 | 153.77768 | 2711 ft | 161 kts | 315° |
| 2026-04-22 20:27 | 67.38549 | 153.75640 | 2502 ft | 148 kts | 315° |
| 2026-04-22 20:27 | 67.39184 | 153.73656 | 2281 ft | 140 kts | 316° |
| 2026-04-22 20:28 | 67.39813 | 153.71811 | 2227 ft | 138 kts | 321° |
| 2026-04-22 20:28 | 67.40461 | 153.70644 | 2124 ft | 87 kts | 351° |
| 2026-04-22 20:28 | 67.41010 | 153.70435 | 1897 ft | 79 kts | 2° |
| 2026-04-22 20:28 | 67.41561 | 153.70221 | 1669 ft | 78 kts | 0° |
| 2026-04-22 20:29 | 67.42082 | 153.69958 | 1361 ft | 75 kts | 357° |
| 2026-04-22 20:29 | 67.42584 | 153.69724 | 1023 ft | 73 kts | 359° |
| 2026-04-22 20:29 | 67.43109 | 153.69623 | 813 ft | 83 kts | 6° |
| 2026-04-22 20:29 | 67.43718 | 153.69707 | 757 ft | 90 kts | 10° |
| 2026-04-22 20:30 | 67.44287 | 153.69915 | 732 ft | 78 kts | 17° |
| 2026-04-22 20:30 | 67.44757 | 153.70251 | 521 ft | 62 kts | 20° |
| 2026-04-22 20:30 | 67.45207 | 153.70646 | 514 ft | 77 kts | 20° |
| 2026-04-22 20:30 | 67.45757 | 153.71180 | 435 ft | 88 kts | 22° |
| 2026-04-22 20:31 | 67.46249 | 153.71701 | 285 ft | 70 kts | 25° |
| 2026-04-22 20:31 | 67.46688 | 153.72173 | 95 ft | 64 kts | 21° |
| 2026-04-22 20:31 | 67.47069 | 153.72535 | 63 ft | 51 kts | 20° |
| 2026-04-22 20:31 | 67.47336 | 153.72791 | 63 ft | 47 kts | 21° |
| 2026-04-22 20:32 | 67.47541 | 153.72973 | 66 ft | 15 kts | 1° |
| 2026-04-22 20:32 | 67.47592 | 153.72964 | 60 ft | 6 kts | 61° |
| 2026-04-22 20:32 | 67.47592 | 153.72968 | 60 ft | 0 kts | 78° |